PWSweather.com
Personal Weather Stations
Station Observations
WD4JKH
Forsyth, GA 31029

Forsyth, GA 31029

Lat: 33.033225, Lon: -83.927995

Elevation: 709

Station Type: Davis Vantage VUE

High Low Average
Temperature 57.5°F14.2°C 37.2°F2.9°C 45.9°F7.7°C
Dew Point 45.6°F7.6°C 33.2°F0.7°C 38.7°F3.7°C
Winds 6.8 mph 10.9 kmh Calm Calm 1.0 mph SW1.6 kmh SW
Wind Gusts 13.0 mph20.9 kmh -- 3.0 mph4.8 kmh
Humidity 97% 45% 78%
Pressure 30.32 in1026.8 mb 30.17 in1021.7 mb -
Precipitation 0.18 in4.6 mm - -
Hour Temp Dew Point Humidity Winds Wind Gusts Pressure Precip Precip Rate Daily Precip Total
12:00 AM 45.7°F7.6°C 33.9°F1.1°C 63% 1.0 mph W1.6 kmh W 2.0 mph3.2 kmh 30.28 in1025.4 mb 0.00 in0.0 mm 0.00 in0.0 mm 0.00 in0.0 mm
12:05 AM 45.5°F7.5°C 34.1°F1.2°C 64% 1.2 mph NW1.9 kmh NW 3.0 mph4.8 kmh 30.28 in1025.4 mb 0.00 in0.0 mm 0.00 in0.0 mm 0.00 in0.0 mm
12:10 AM 45.3°F7.4°C 33.8°F1.0°C 64% 1.0 mph WNW1.6 kmh WNW 3.0 mph4.8 kmh 30.28 in1025.4 mb 0.00 in0.0 mm 0.00 in0.0 mm 0.00 in0.0 mm
12:15 AM 45.1°F7.3°C 34.1°F1.2°C 65% 1.1 mph NW1.8 kmh NW 3.0 mph4.8 kmh 30.28 in1025.4 mb 0.00 in0.0 mm 0.00 in0.0 mm 0.00 in0.0 mm
12:20 AM 45.0°F7.2°C 33.9°F1.1°C 65% 1.3 mph NW2.1 kmh NW 3.0 mph4.8 kmh 30.28 in1025.4 mb 0.00 in0.0 mm 0.00 in0.0 mm 0.00 in0.0 mm
12:25 AM 44.8°F7.1°C 33.8°F1.0°C 65% 1.0 mph NW1.6 kmh NW 2.0 mph3.2 kmh 30.28 in1025.4 mb 0.00 in0.0 mm 0.00 in0.0 mm 0.00 in0.0 mm
12:30 AM 44.7°F7.1°C 33.7°F0.9°C 65% 1.0 mph WNW1.6 kmh WNW 2.0 mph3.2 kmh 30.28 in1025.4 mb 0.00 in0.0 mm 0.00 in0.0 mm 0.00 in0.0 mm
12:35 AM 44.5°F6.9°C 33.8°F1.0°C 66% 1.7 mph NW2.7 kmh NW 2.0 mph3.2 kmh 30.28 in1025.4 mb 0.00 in0.0 mm 0.00 in0.0 mm 0.00 in0.0 mm
12:40 AM 44.3°F6.8°C 33.7°F0.9°C 66% Calm Calm 2.0 mph3.2 kmh 30.28 in1025.4 mb 0.00 in0.0 mm 0.00 in0.0 mm 0.00 in0.0 mm
12:45 AM 44.0°F6.7°C 33.4°F0.8°C 66% Calm Calm 2.0 mph3.2 kmh 30.28 in1025.4 mb 0.00 in0.0 mm 0.00 in0.0 mm 0.00 in0.0 mm
12:50 AM 43.9°F6.6°C 33.7°F0.9°C 67% Calm Calm 2.0 mph3.2 kmh 30.28 in1025.4 mb 0.00 in0.0 mm 0.00 in0.0 mm 0.00 in0.0 mm
12:55 AM 43.7°F6.5°C 33.6°F0.9°C 67% Calm Calm 1.0 mph1.6 kmh 30.28 in1025.4 mb 0.00 in0.0 mm 0.00 in0.0 mm 0.00 in0.0 mm
01:00 AM 43.6°F6.4°C 33.5°F0.8°C 67% Calm Calm 1.0 mph1.6 kmh 30.28 in1025.4 mb 0.00 in0.0 mm 0.00 in0.0 mm 0.00 in0.0 mm
01:05 AM 43.5°F6.4°C 33.6°F0.9°C 68% 1.0 mph W1.6 kmh W 1.0 mph1.6 kmh 30.28 in1025.4 mb 0.00 in0.0 mm 0.00 in0.0 mm 0.00 in0.0 mm
01:10 AM 43.2°F6.2°C 33.4°F0.8°C 68% 1.0 mph W1.6 kmh W 1.0 mph1.6 kmh 30.28 in1025.4 mb 0.00 in0.0 mm 0.00 in0.0 mm 0.00 in0.0 mm
01:15 AM 43.1°F6.2°C 33.3°F0.7°C 68% Calm Calm 1.0 mph1.6 kmh 30.28 in1025.4 mb 0.00 in0.0 mm 0.00 in0.0 mm 0.00 in0.0 mm
01:20 AM 42.9°F6.1°C 33.5°F0.8°C 69% Calm Calm 1.0 mph1.6 kmh 30.28 in1025.4 mb 0.00 in0.0 mm 0.00 in0.0 mm 0.00 in0.0 mm
01:25 AM 42.7°F5.9°C 33.7°F0.9°C 70% Calm Calm 1.0 mph1.6 kmh 30.28 in1025.4 mb 0.00 in0.0 mm 0.00 in0.0 mm 0.00 in0.0 mm
01:30 AM 42.5°F5.8°C 33.5°F0.8°C 70% Calm Calm 1.0 mph1.6 kmh 30.28 in1025.4 mb 0.00 in0.0 mm 0.00 in0.0 mm 0.00 in0.0 mm
01:35 AM 42.6°F5.9°C 33.6°F0.9°C 70% 1.0 mph WNW1.6 kmh WNW 1.0 mph1.6 kmh 30.28 in1025.4 mb 0.00 in0.0 mm 0.00 in0.0 mm 0.00 in0.0 mm
01:40 AM 42.7°F5.9°C 33.7°F0.9°C 70% 1.3 mph NW2.1 kmh NW 2.0 mph3.2 kmh 30.28 in1025.4 mb 0.00 in0.0 mm 0.00 in0.0 mm 0.00 in0.0 mm
01:45 AM 42.6°F5.9°C 33.6°F0.9°C 70% Calm Calm 2.0 mph3.2 kmh 30.27 in1025.1 mb 0.00 in0.0 mm 0.00 in0.0 mm 0.00 in0.0 mm
01:50 AM 42.3°F5.7°C 33.6°F0.9°C 71% Calm Calm 2.0 mph3.2 kmh 30.27 in1025.1 mb 0.00 in0.0 mm 0.00 in0.0 mm 0.00 in0.0 mm
01:55 AM 42.2°F5.7°C 33.5°F0.8°C 71% Calm Calm 2.0 mph3.2 kmh 30.27 in1025.1 mb 0.00 in0.0 mm 0.00 in0.0 mm 0.00 in0.0 mm
02:00 AM 42.2°F5.7°C 33.9°F1.1°C 72% Calm Calm -- 30.27 in1025.1 mb 0.00 in0.0 mm 0.00 in0.0 mm 0.00 in0.0 mm
02:05 AM 42.0°F5.6°C 33.6°F0.9°C 72% 1.0 mph NW1.6 kmh NW 1.0 mph1.6 kmh 30.27 in1025.1 mb 0.00 in0.0 mm 0.00 in0.0 mm 0.00 in0.0 mm
02:10 AM 41.9°F5.5°C 33.6°F0.9°C 72% Calm Calm 2.0 mph3.2 kmh 30.27 in1025.1 mb 0.00 in0.0 mm 0.00 in0.0 mm 0.00 in0.0 mm
02:15 AM 41.7°F5.4°C 33.3°F0.7°C 72% Calm Calm 2.0 mph3.2 kmh 30.27 in1025.1 mb 0.00 in0.0 mm 0.00 in0.0 mm 0.00 in0.0 mm
02:20 AM 41.5°F5.3°C 33.6°F0.9°C 73% 1.0 mph NW1.6 kmh NW 2.0 mph3.2 kmh 30.27 in1025.1 mb 0.00 in0.0 mm 0.00 in0.0 mm 0.00 in0.0 mm
02:25 AM 41.3°F5.2°C 33.7°F0.9°C 74% 1.0 mph NW1.6 kmh NW 3.0 mph4.8 kmh 30.27 in1025.1 mb 0.00 in0.0 mm 0.00 in0.0 mm 0.00 in0.0 mm
02:30 AM 41.2°F5.1°C 33.6°F0.9°C 74% 1.0 mph NW1.6 kmh NW 3.0 mph4.8 kmh 30.27 in1025.1 mb 0.00 in0.0 mm 0.00 in0.0 mm 0.00 in0.0 mm
02:35 AM 41.1°F5.1°C 33.4°F0.8°C 74% Calm Calm 3.0 mph4.8 kmh 30.27 in1025.1 mb 0.00 in0.0 mm 0.00 in0.0 mm 0.00 in0.0 mm
02:40 AM 40.9°F4.9°C 33.6°F0.9°C 75% Calm Calm 2.0 mph3.2 kmh 30.27 in1025.1 mb 0.00 in0.0 mm 0.00 in0.0 mm 0.00 in0.0 mm
02:45 AM 40.9°F4.9°C 33.6°F0.9°C 75% 1.0 mph WNW1.6 kmh WNW 1.0 mph1.6 kmh 30.27 in1025.1 mb 0.00 in0.0 mm 0.00 in0.0 mm 0.00 in0.0 mm
02:50 AM 40.7°F4.8°C 33.8°F1.0°C 76% 1.1 mph WNW1.8 kmh WNW 2.0 mph3.2 kmh 30.27 in1025.1 mb 0.00 in0.0 mm 0.00 in0.0 mm 0.00 in0.0 mm
02:55 AM 40.5°F4.7°C 33.5°F0.8°C 76% 1.0 mph W1.6 kmh W 2.0 mph3.2 kmh 30.27 in1025.1 mb 0.00 in0.0 mm 0.00 in0.0 mm 0.00 in0.0 mm
03:00 AM 40.2°F4.6°C 33.6°F0.9°C 77% Calm Calm 2.0 mph3.2 kmh 30.27 in1025.1 mb 0.00 in0.0 mm 0.00 in0.0 mm 0.00 in0.0 mm
03:05 AM 40.0°F4.4°C 33.4°F0.8°C 77% Calm Calm 2.0 mph3.2 kmh 30.28 in1025.4 mb 0.00 in0.0 mm 0.00 in0.0 mm 0.00 in0.0 mm
03:10 AM 39.8°F4.3°C 33.2°F0.7°C 77% Calm Calm 2.0 mph3.2 kmh 30.28 in1025.4 mb 0.00 in0.0 mm 0.00 in0.0 mm 0.00 in0.0 mm
03:15 AM 39.7°F4.3°C 33.4°F0.8°C 78% Calm Calm 1.0 mph1.6 kmh 30.28 in1025.4 mb 0.00 in0.0 mm 0.00 in0.0 mm 0.00 in0.0 mm
03:20 AM 39.7°F4.3°C 33.4°F0.8°C 78% Calm Calm 1.0 mph1.6 kmh 30.28 in1025.4 mb 0.00 in0.0 mm 0.00 in0.0 mm 0.00 in0.0 mm
03:25 AM 39.9°F4.4°C 33.6°F0.9°C 78% 1.0 mph W1.6 kmh W 1.0 mph1.6 kmh 30.28 in1025.4 mb 0.00 in0.0 mm 0.00 in0.0 mm 0.00 in0.0 mm
03:30 AM 40.0°F4.4°C 33.7°F0.9°C 78% 1.0 mph W1.6 kmh W 1.0 mph1.6 kmh 30.28 in1025.4 mb 0.00 in0.0 mm 0.00 in0.0 mm 0.00 in0.0 mm
03:35 AM 40.0°F4.4°C 33.7°F0.9°C 78% 1.0 mph W1.6 kmh W 1.0 mph1.6 kmh 30.28 in1025.4 mb 0.00 in0.0 mm 0.00 in0.0 mm 0.00 in0.0 mm
03:40 AM 40.1°F4.5°C 33.8°F1.0°C 78% 1.0 mph W1.6 kmh W 1.0 mph1.6 kmh 30.28 in1025.4 mb 0.00 in0.0 mm 0.00 in0.0 mm 0.00 in0.0 mm
03:45 AM 40.2°F4.6°C 33.9°F1.1°C 78% 1.0 mph W1.6 kmh W 1.0 mph1.6 kmh 30.28 in1025.4 mb 0.00 in0.0 mm 0.00 in0.0 mm 0.00 in0.0 mm
03:50 AM 40.4°F4.7°C 34.1°F1.2°C 78% 1.2 mph W1.9 kmh W 2.0 mph3.2 kmh 30.27 in1025.1 mb 0.00 in0.0 mm 0.00 in0.0 mm 0.00 in0.0 mm
03:55 AM 40.5°F4.7°C 33.9°F1.1°C 77% 1.3 mph NW2.1 kmh NW 2.0 mph3.2 kmh 30.28 in1025.4 mb 0.00 in0.0 mm 0.00 in0.0 mm 0.00 in0.0 mm
04:00 AM 40.5°F4.7°C 33.9°F1.1°C 77% 1.0 mph NW1.6 kmh NW 2.0 mph3.2 kmh 30.28 in1025.4 mb 0.00 in0.0 mm 0.00 in0.0 mm 0.00 in0.0 mm
04:05 AM 40.5°F4.7°C 33.9°F1.1°C 77% 1.2 mph NW1.9 kmh NW 3.0 mph4.8 kmh 30.28 in1025.4 mb 0.00 in0.0 mm 0.00 in0.0 mm 0.00 in0.0 mm
04:10 AM 40.5°F4.7°C 33.9°F1.1°C 77% 1.4 mph WNW2.3 kmh WNW 3.0 mph4.8 kmh 30.28 in1025.4 mb 0.00 in0.0 mm 0.00 in0.0 mm 0.00 in0.0 mm
04:15 AM 40.4°F4.7°C 34.1°F1.2°C 78% 1.2 mph NW1.9 kmh NW 3.0 mph4.8 kmh 30.28 in1025.4 mb 0.00 in0.0 mm 0.00 in0.0 mm 0.00 in0.0 mm
04:20 AM 40.5°F4.7°C 34.2°F1.2°C 78% 1.0 mph WNW1.6 kmh WNW 3.0 mph4.8 kmh 30.28 in1025.4 mb 0.00 in0.0 mm 0.00 in0.0 mm 0.00 in0.0 mm
04:25 AM 40.4°F4.7°C 34.1°F1.2°C 78% 1.0 mph WNW1.6 kmh WNW 3.0 mph4.8 kmh 30.28 in1025.4 mb 0.00 in0.0 mm 0.00 in0.0 mm 0.00 in0.0 mm
04:30 AM 40.5°F4.7°C 34.2°F1.2°C 78% 1.0 mph WNW1.6 kmh WNW 2.0 mph3.2 kmh 30.28 in1025.4 mb 0.00 in0.0 mm 0.00 in0.0 mm 0.00 in0.0 mm
04:35 AM 40.4°F4.7°C 34.1°F1.2°C 78% 1.0 mph WNW1.6 kmh WNW 2.0 mph3.2 kmh 30.28 in1025.4 mb 0.00 in0.0 mm 0.00 in0.0 mm 0.00 in0.0 mm
04:39 AM 40.5°F4.7°C 34.2°F1.2°C 78% 1.0 mph WNW1.6 kmh WNW 2.0 mph3.2 kmh 30.28 in1025.4 mb 0.00 in0.0 mm 0.00 in0.0 mm 0.00 in0.0 mm
04:44 AM 40.3°F4.6°C 34.0°F1.1°C 78% Calm Calm 2.0 mph3.2 kmh 30.28 in1025.4 mb 0.00 in0.0 mm 0.00 in0.0 mm 0.00 in0.0 mm
04:49 AM 40.3°F4.6°C 34.3°F1.3°C 79% 1.0 mph WNW1.6 kmh WNW 2.0 mph3.2 kmh 30.28 in1025.4 mb 0.00 in0.0 mm 0.00 in0.0 mm 0.00 in0.0 mm
04:54 AM 40.3°F4.6°C 34.3°F1.3°C 79% Calm Calm 2.0 mph3.2 kmh 30.28 in1025.4 mb 0.00 in0.0 mm 0.00 in0.0 mm 0.00 in0.0 mm
04:59 AM 40.1°F4.5°C 34.1°F1.2°C 79% Calm Calm 1.0 mph1.6 kmh 30.28 in1025.4 mb 0.00 in0.0 mm 0.00 in0.0 mm 0.00 in0.0 mm
05:04 AM 40.0°F4.4°C 34.0°F1.1°C 79% 1.0 mph WNW1.6 kmh WNW 1.0 mph1.6 kmh 30.28 in1025.4 mb 0.00 in0.0 mm 0.00 in0.0 mm 0.00 in0.0 mm
05:09 AM 40.1°F4.5°C 34.1°F1.2°C 79% 1.0 mph WNW1.6 kmh WNW 1.0 mph1.6 kmh 30.28 in1025.4 mb 0.00 in0.0 mm 0.00 in0.0 mm 0.00 in0.0 mm
05:14 AM 40.2°F4.6°C 34.2°F1.2°C 79% Calm Calm 1.0 mph1.6 kmh 30.27 in1025.1 mb 0.00 in0.0 mm 0.00 in0.0 mm 0.00 in0.0 mm
05:19 AM 40.2°F4.6°C 34.2°F1.2°C 79% 1.3 mph WNW2.1 kmh WNW 2.0 mph3.2 kmh 30.28 in1025.4 mb 0.00 in0.0 mm 0.00 in0.0 mm 0.00 in0.0 mm
05:24 AM 40.2°F4.6°C 34.2°F1.2°C 79% 1.2 mph WNW1.9 kmh WNW 2.0 mph3.2 kmh 30.27 in1025.1 mb 0.00 in0.0 mm 0.00 in0.0 mm 0.00 in0.0 mm
05:29 AM 40.3°F4.6°C 34.3°F1.3°C 79% 1.1 mph NW1.8 kmh NW 2.0 mph3.2 kmh 30.27 in1025.1 mb 0.00 in0.0 mm 0.00 in0.0 mm 0.00 in0.0 mm
05:34 AM 40.2°F4.6°C 34.2°F1.2°C 79% Calm Calm 2.0 mph3.2 kmh 30.27 in1025.1 mb 0.00 in0.0 mm 0.00 in0.0 mm 0.00 in0.0 mm
05:39 AM 39.9°F4.4°C 34.2°F1.2°C 80% 1.0 mph NW1.6 kmh NW 2.0 mph3.2 kmh 30.26 in1024.7 mb 0.00 in0.0 mm 0.00 in0.0 mm 0.00 in0.0 mm
05:44 AM 39.8°F4.3°C 34.2°F1.2°C 80% 1.0 mph NW1.6 kmh NW 2.0 mph3.2 kmh 30.26 in1024.7 mb 0.00 in0.0 mm 0.00 in0.0 mm 0.00 in0.0 mm
05:49 AM 39.7°F4.3°C 34.1°F1.2°C 80% 1.0 mph NW1.6 kmh NW 2.0 mph3.2 kmh 30.25 in1024.4 mb 0.00 in0.0 mm 0.00 in0.0 mm 0.00 in0.0 mm
05:54 AM 39.6°F4.2°C 34.2°F1.2°C 81% 1.4 mph NW2.3 kmh NW 3.0 mph4.8 kmh 30.26 in1024.7 mb 0.00 in0.0 mm 0.00 in0.0 mm 0.00 in0.0 mm
05:59 AM 39.6°F4.2°C 34.3°F1.3°C 81% 1.0 mph NW1.6 kmh NW 3.0 mph4.8 kmh 30.25 in1024.4 mb 0.00 in0.0 mm 0.00 in0.0 mm 0.00 in0.0 mm
06:04 AM 39.6°F4.2°C 34.3°F1.3°C 81% 1.0 mph NW1.6 kmh NW 3.0 mph4.8 kmh 30.25 in1024.4 mb 0.00 in0.0 mm 0.00 in0.0 mm 0.00 in0.0 mm
06:09 AM 39.7°F4.3°C 34.4°F1.3°C 81% 1.0 mph NW1.6 kmh NW 3.0 mph4.8 kmh 30.26 in1024.7 mb 0.00 in0.0 mm 0.00 in0.0 mm 0.00 in0.0 mm
06:14 AM 39.7°F4.3°C 34.4°F1.3°C 81% 1.0 mph NW1.6 kmh NW 2.0 mph3.2 kmh 30.25 in1024.4 mb 0.00 in0.0 mm 0.00 in0.0 mm 0.00 in0.0 mm
06:19 AM 39.7°F4.3°C 34.4°F1.3°C 81% Calm Calm 2.0 mph3.2 kmh 30.25 in1024.4 mb 0.00 in0.0 mm 0.00 in0.0 mm 0.00 in0.0 mm
06:24 AM 39.6°F4.2°C 34.3°F1.3°C 81% Calm Calm 2.0 mph3.2 kmh 30.25 in1024.4 mb 0.00 in0.0 mm 0.00 in0.0 mm 0.00 in0.0 mm
06:29 AM 39.6°F4.2°C 34.3°F1.3°C 81% Calm Calm 2.0 mph3.2 kmh 30.25 in1024.4 mb 0.00 in0.0 mm 0.00 in0.0 mm 0.00 in0.0 mm
06:34 AM 39.5°F4.2°C 34.2°F1.2°C 81% Calm Calm 1.0 mph1.6 kmh 30.25 in1024.4 mb 0.00 in0.0 mm 0.00 in0.0 mm 0.00 in0.0 mm
06:39 AM 39.3°F4.1°C 34.0°F1.1°C 81% Calm Calm 1.0 mph1.6 kmh 30.25 in1024.4 mb 0.00 in0.0 mm 0.00 in0.0 mm 0.00 in0.0 mm
06:44 AM 39.2°F4.0°C 34.2°F1.2°C 82% Calm Calm 1.0 mph1.6 kmh 30.25 in1024.4 mb 0.00 in0.0 mm 0.00 in0.0 mm 0.00 in0.0 mm
06:49 AM 39.1°F3.9°C 34.1°F1.2°C 82% Calm Calm -- 30.25 in1024.4 mb 0.00 in0.0 mm 0.00 in0.0 mm 0.00 in0.0 mm
06:54 AM 39.1°F3.9°C 34.1°F1.2°C 82% Calm Calm -- 30.25 in1024.4 mb 0.00 in0.0 mm 0.00 in0.0 mm 0.00 in0.0 mm
06:59 AM 39.0°F3.9°C 34.0°F1.1°C 82% Calm Calm -- 30.25 in1024.4 mb 0.00 in0.0 mm 0.00 in0.0 mm 0.00 in0.0 mm
07:04 AM 38.9°F3.8°C 33.9°F1.1°C 82% Calm Calm -- 30.25 in1024.4 mb 0.00 in0.0 mm 0.00 in0.0 mm 0.00 in0.0 mm
07:09 AM 38.9°F3.8°C 34.2°F1.2°C 83% Calm Calm -- 30.25 in1024.4 mb 0.00 in0.0 mm 0.00 in0.0 mm 0.00 in0.0 mm
07:14 AM 38.9°F3.8°C 34.2°F1.2°C 83% Calm Calm -- 30.25 in1024.4 mb 0.00 in0.0 mm 0.00 in0.0 mm 0.00 in0.0 mm
07:19 AM 38.8°F3.8°C 34.1°F1.2°C 83% Calm Calm -- 30.25 in1024.4 mb 0.00 in0.0 mm 0.00 in0.0 mm 0.00 in0.0 mm
07:24 AM 38.5°F3.6°C 33.8°F1.0°C 83% Calm Calm -- 30.24 in1024.0 mb 0.00 in0.0 mm 0.00 in0.0 mm 0.00 in0.0 mm
07:29 AM 38.4°F3.6°C 34.0°F1.1°C 84% Calm Calm -- 30.25 in1024.4 mb 0.00 in0.0 mm 0.00 in0.0 mm 0.00 in0.0 mm
07:34 AM 38.4°F3.6°C 34.0°F1.1°C 84% Calm Calm -- 30.25 in1024.4 mb 0.00 in0.0 mm 0.00 in0.0 mm 0.00 in0.0 mm
07:39 AM 38.0°F3.3°C 33.6°F0.9°C 84% Calm Calm -- 30.25 in1024.4 mb 0.00 in0.0 mm 0.00 in0.0 mm 0.00 in0.0 mm
07:44 AM 37.7°F3.2°C 33.3°F0.7°C 84% Calm Calm -- 30.25 in1024.4 mb 0.00 in0.0 mm 0.00 in0.0 mm 0.00 in0.0 mm
07:49 AM 37.6°F3.1°C 33.5°F0.8°C 85% Calm Calm -- 30.26 in1024.7 mb 0.00 in0.0 mm 0.00 in0.0 mm 0.00 in0.0 mm
07:54 AM 37.8°F3.2°C 33.7°F0.9°C 85% Calm Calm -- 30.26 in1024.7 mb 0.00 in0.0 mm 0.00 in0.0 mm 0.00 in0.0 mm
07:59 AM 37.9°F3.3°C 33.8°F1.0°C 85% Calm Calm -- 30.26 in1024.7 mb 0.00 in0.0 mm 0.00 in0.0 mm 0.00 in0.0 mm
08:04 AM 37.9°F3.3°C 33.8°F1.0°C 85% Calm Calm -- 30.26 in1024.7 mb 0.00 in0.0 mm 0.00 in0.0 mm 0.00 in0.0 mm
08:09 AM 37.7°F3.2°C 33.6°F0.9°C 85% Calm Calm -- 30.26 in1024.7 mb 0.00 in0.0 mm 0.00 in0.0 mm 0.00 in0.0 mm
08:14 AM 37.5°F3.1°C 33.4°F0.8°C 85% Calm Calm -- 30.26 in1024.7 mb 0.00 in0.0 mm 0.00 in0.0 mm 0.00 in0.0 mm
08:19 AM 37.3°F2.9°C 33.5°F0.8°C 86% Calm Calm -- 30.26 in1024.7 mb 0.00 in0.0 mm 0.00 in0.0 mm 0.00 in0.0 mm
08:24 AM 37.3°F2.9°C 33.5°F0.8°C 86% Calm Calm -- 30.27 in1025.1 mb 0.00 in0.0 mm 0.00 in0.0 mm 0.00 in0.0 mm
08:29 AM 37.2°F2.9°C 33.7°F0.9°C 87% Calm Calm -- 30.27 in1025.1 mb 0.00 in0.0 mm 0.00 in0.0 mm 0.00 in0.0 mm
08:34 AM 37.6°F3.1°C 33.8°F1.0°C 86% Calm Calm -- 30.27 in1025.1 mb 0.00 in0.0 mm 0.00 in0.0 mm 0.00 in0.0 mm
08:39 AM 37.9°F3.3°C 34.1°F1.2°C 86% Calm Calm -- 30.28 in1025.4 mb 0.00 in0.0 mm 0.00 in0.0 mm 0.00 in0.0 mm
08:44 AM 37.7°F3.2°C 33.6°F0.9°C 85% 1.0 mph SW1.6 kmh SW 1.0 mph1.6 kmh 30.28 in1025.4 mb 0.00 in0.0 mm 0.00 in0.0 mm 0.00 in0.0 mm
08:49 AM 37.6°F3.1°C 33.8°F1.0°C 86% 1.1 mph SW1.8 kmh SW 2.0 mph3.2 kmh 30.30 in1026.1 mb 0.00 in0.0 mm 0.00 in0.0 mm 0.00 in0.0 mm
08:54 AM 37.6°F3.1°C 33.8°F1.0°C 86% 1.1 mph WSW1.8 kmh WSW 2.0 mph3.2 kmh 30.30 in1026.1 mb 0.00 in0.0 mm 0.00 in0.0 mm 0.00 in0.0 mm
08:59 AM 37.6°F3.1°C 33.8°F1.0°C 86% 1.1 mph WSW1.8 kmh WSW 2.0 mph3.2 kmh 30.29 in1025.7 mb 0.00 in0.0 mm 0.00 in0.0 mm 0.00 in0.0 mm
09:04 AM 37.4°F3.0°C 33.3°F0.7°C 85% Calm Calm 2.0 mph3.2 kmh 30.28 in1025.4 mb 0.00 in0.0 mm 0.00 in0.0 mm 0.00 in0.0 mm
09:09 AM 37.4°F3.0°C 33.6°F0.9°C 86% Calm Calm 2.0 mph3.2 kmh 30.27 in1025.1 mb 0.00 in0.0 mm 0.00 in0.0 mm 0.00 in0.0 mm
09:14 AM 38.1°F3.4°C 34.0°F1.1°C 85% Calm Calm 2.0 mph3.2 kmh 30.27 in1025.1 mb 0.00 in0.0 mm 0.00 in0.0 mm 0.00 in0.0 mm
09:19 AM 38.2°F3.4°C 34.1°F1.2°C 85% Calm Calm 1.0 mph1.6 kmh 30.27 in1025.1 mb 0.00 in0.0 mm 0.00 in0.0 mm 0.00 in0.0 mm
09:24 AM 38.1°F3.4°C 34.0°F1.1°C 85% Calm Calm 1.0 mph1.6 kmh 30.28 in1025.4 mb 0.00 in0.0 mm 0.00 in0.0 mm 0.00 in0.0 mm
09:29 AM 37.9°F3.3°C 33.8°F1.0°C 85% 1.0 mph SW1.6 kmh SW 1.0 mph1.6 kmh 30.27 in1025.1 mb 0.00 in0.0 mm 0.00 in0.0 mm 0.00 in0.0 mm
09:34 AM 37.8°F3.2°C 33.7°F0.9°C 85% 1.0 mph SW1.6 kmh SW 1.0 mph1.6 kmh 30.27 in1025.1 mb 0.00 in0.0 mm 0.00 in0.0 mm 0.00 in0.0 mm
09:39 AM 37.7°F3.2°C 33.9°F1.1°C 86% 1.0 mph SW1.6 kmh SW 2.0 mph3.2 kmh 30.27 in1025.1 mb 0.00 in0.0 mm 0.00 in0.0 mm 0.00 in0.0 mm
09:44 AM 37.8°F3.2°C 33.7°F0.9°C 85% 1.0 mph SW1.6 kmh SW 2.0 mph3.2 kmh 30.27 in1025.1 mb 0.00 in0.0 mm 0.00 in0.0 mm 0.00 in0.0 mm
09:49 AM 38.2°F3.4°C 34.1°F1.2°C 85% 1.0 mph SW1.6 kmh SW 2.0 mph3.2 kmh 30.27 in1025.1 mb 0.00 in0.0 mm 0.00 in0.0 mm 0.00 in0.0 mm
09:54 AM 38.5°F3.6°C 34.4°F1.3°C 85% Calm Calm 2.0 mph3.2 kmh 30.27 in1025.1 mb 0.00 in0.0 mm 0.00 in0.0 mm 0.00 in0.0 mm
09:59 AM 39.2°F4.0°C 34.8°F1.6°C 84% Calm Calm 1.0 mph1.6 kmh 30.27 in1025.1 mb 0.00 in0.0 mm 0.00 in0.0 mm 0.00 in0.0 mm
10:04 AM 40.2°F4.6°C 35.7°F2.1°C 84% Calm Calm 1.0 mph1.6 kmh 30.26 in1024.7 mb 0.00 in0.0 mm 0.00 in0.0 mm 0.00 in0.0 mm
10:09 AM 41.3°F5.2°C 36.2°F2.3°C 82% 1.0 mph SE1.6 kmh SE 1.0 mph1.6 kmh 30.26 in1024.7 mb 0.00 in0.0 mm 0.00 in0.0 mm 0.00 in0.0 mm
10:14 AM 41.7°F5.4°C 36.3°F2.4°C 81% 1.0 mph SSE1.6 kmh SSE 2.0 mph3.2 kmh 30.26 in1024.7 mb 0.00 in0.0 mm 0.00 in0.0 mm 0.00 in0.0 mm
10:19 AM 42.3°F5.7°C 36.9°F2.7°C 81% 1.0 mph SE1.6 kmh SE 2.0 mph3.2 kmh 30.26 in1024.7 mb 0.00 in0.0 mm 0.00 in0.0 mm 0.00 in0.0 mm
10:24 AM 43.2°F6.2°C 37.5°F3.1°C 80% 1.2 mph E1.9 kmh E 2.0 mph3.2 kmh 30.26 in1024.7 mb 0.00 in0.0 mm 0.00 in0.0 mm 0.00 in0.0 mm
10:29 AM 43.7°F6.5°C 37.3°F2.9°C 78% 2.3 mph SE3.7 kmh SE 3.0 mph4.8 kmh 30.26 in1024.7 mb 0.00 in0.0 mm 0.00 in0.0 mm 0.00 in0.0 mm
10:34 AM 43.7°F6.5°C 37.0°F2.8°C 77% 2.4 mph SE3.9 kmh SE 5.0 mph8.0 kmh 30.26 in1024.7 mb 0.00 in0.0 mm 0.00 in0.0 mm 0.00 in0.0 mm
10:38 AM 43.8°F6.6°C 37.1°F2.8°C 77% 2.8 mph SSE4.5 kmh SSE 5.0 mph8.0 kmh 30.25 in1024.4 mb 0.00 in0.0 mm 0.00 in0.0 mm 0.00 in0.0 mm
10:43 AM 44.1°F6.7°C 37.4°F3.0°C 77% 3.3 mph SE5.3 kmh SE 6.0 mph9.7 kmh 30.25 in1024.4 mb 0.00 in0.0 mm 0.00 in0.0 mm 0.00 in0.0 mm
10:48 AM 44.6°F7.0°C 37.6°F3.1°C 76% 3.7 mph SSE6.0 kmh SSE 7.0 mph11.3 kmh 30.26 in1024.7 mb 0.00 in0.0 mm 0.00 in0.0 mm 0.00 in0.0 mm
10:53 AM 45.0°F7.2°C 37.6°F3.1°C 75% 2.5 mph SE4.0 kmh SE 7.0 mph11.3 kmh 30.26 in1024.7 mb 0.00 in0.0 mm 0.00 in0.0 mm 0.00 in0.0 mm
10:58 AM 45.5°F7.5°C 38.1°F3.4°C 75% 2.3 mph SE3.7 kmh SE 7.0 mph11.3 kmh 30.25 in1024.4 mb 0.00 in0.0 mm 0.00 in0.0 mm 0.00 in0.0 mm
11:03 AM 45.4°F7.4°C 37.2°F2.9°C 73% 4.4 mph SE7.1 kmh SE 7.0 mph11.3 kmh 30.25 in1024.4 mb 0.00 in0.0 mm 0.00 in0.0 mm 0.00 in0.0 mm
11:08 AM 45.4°F7.4°C 36.9°F2.7°C 72% 4.6 mph SSE7.4 kmh SSE 10.0 mph16.1 kmh 30.25 in1024.4 mb 0.00 in0.0 mm 0.00 in0.0 mm 0.00 in0.0 mm
11:13 AM 45.6°F7.6°C 37.1°F2.8°C 72% 3.5 mph SE5.6 kmh SE 10.0 mph16.1 kmh 30.25 in1024.4 mb 0.00 in0.0 mm 0.00 in0.0 mm 0.00 in0.0 mm
11:18 AM 46.0°F7.8°C 37.5°F3.1°C 72% 2.4 mph S3.9 kmh S 10.0 mph16.1 kmh 30.25 in1024.4 mb 0.00 in0.0 mm 0.00 in0.0 mm 0.00 in0.0 mm
11:23 AM 46.2°F7.9°C 37.0°F2.8°C 70% 2.2 mph SSE3.5 kmh SSE 8.0 mph12.9 kmh 30.26 in1024.7 mb 0.00 in0.0 mm 0.00 in0.0 mm 0.00 in0.0 mm
11:28 AM 46.3°F7.9°C 37.1°F2.8°C 70% 2.0 mph SW3.2 kmh SW 8.0 mph12.9 kmh 30.28 in1025.4 mb 0.00 in0.0 mm 0.00 in0.0 mm 0.00 in0.0 mm
11:33 AM 46.4°F8.0°C 37.2°F2.9°C 70% 2.5 mph W4.0 kmh W 5.0 mph8.0 kmh 30.30 in1026.1 mb 0.00 in0.0 mm 0.00 in0.0 mm 0.00 in0.0 mm
11:38 AM 46.4°F8.0°C 36.9°F2.7°C 69% 2.3 mph WNW3.7 kmh WNW 5.0 mph8.0 kmh 30.31 in1026.4 mb 0.00 in0.0 mm 0.00 in0.0 mm 0.00 in0.0 mm
11:43 AM 46.6°F8.1°C 37.4°F3.0°C 70% 2.6 mph WNW4.2 kmh WNW 6.0 mph9.7 kmh 30.32 in1026.8 mb 0.00 in0.0 mm 0.00 in0.0 mm 0.00 in0.0 mm
11:48 AM 46.5°F8.1°C 36.5°F2.5°C 68% 1.7 mph WNW2.7 kmh WNW 6.0 mph9.7 kmh 30.32 in1026.8 mb 0.00 in0.0 mm 0.00 in0.0 mm 0.00 in0.0 mm
11:53 AM 46.7°F8.2°C 37.4°F3.0°C 70% 1.0 mph W1.6 kmh W 6.0 mph9.7 kmh 30.31 in1026.4 mb 0.00 in0.0 mm 0.00 in0.0 mm 0.00 in0.0 mm
11:58 AM 47.1°F8.4°C 37.9°F3.3°C 70% 1.0 mph WNW1.6 kmh WNW 6.0 mph9.7 kmh 30.30 in1026.1 mb 0.00 in0.0 mm 0.00 in0.0 mm 0.00 in0.0 mm
12:03 PM 47.3°F8.5°C 37.3°F2.9°C 68% 1.0 mph SW1.6 kmh SW 5.0 mph8.0 kmh 30.30 in1026.1 mb 0.00 in0.0 mm 0.00 in0.0 mm 0.00 in0.0 mm
12:08 PM 47.9°F8.8°C 37.9°F3.3°C 68% 1.0 mph SSE1.6 kmh SSE 2.0 mph3.2 kmh 30.30 in1026.1 mb 0.00 in0.0 mm 0.00 in0.0 mm 0.00 in0.0 mm
12:13 PM 48.4°F9.1°C 37.9°F3.3°C 67% 1.0 mph SE1.6 kmh SE 2.0 mph3.2 kmh 30.29 in1025.7 mb 0.00 in0.0 mm 0.00 in0.0 mm 0.00 in0.0 mm
12:18 PM 49.3°F9.6°C 38.0°F3.3°C 65% 1.9 mph SE3.1 kmh SE 3.0 mph4.8 kmh 30.28 in1025.4 mb 0.00 in0.0 mm 0.00 in0.0 mm 0.00 in0.0 mm
12:23 PM 49.9°F9.9°C 38.7°F3.7°C 65% 1.5 mph SSE2.4 kmh SSE 3.0 mph4.8 kmh 30.28 in1025.4 mb 0.00 in0.0 mm 0.00 in0.0 mm 0.00 in0.0 mm
12:28 PM 50.4°F10.2°C 38.4°F3.6°C 63% 1.5 mph S2.4 kmh S 4.0 mph6.4 kmh 30.27 in1025.1 mb 0.00 in0.0 mm 0.00 in0.0 mm 0.00 in0.0 mm
12:33 PM 51.0°F10.6°C 38.4°F3.6°C 62% 1.1 mph SSE1.8 kmh SSE 4.0 mph6.4 kmh 30.27 in1025.1 mb 0.00 in0.0 mm 0.00 in0.0 mm 0.00 in0.0 mm
12:38 PM 51.5°F10.8°C 38.6°F3.7°C 61% 2.4 mph SSW3.9 kmh SSW 4.0 mph6.4 kmh 30.27 in1025.1 mb 0.00 in0.0 mm 0.00 in0.0 mm 0.00 in0.0 mm
12:43 PM 51.7°F10.9°C 38.8°F3.8°C 61% 2.0 mph SW3.2 kmh SW 4.0 mph6.4 kmh 30.27 in1025.1 mb 0.00 in0.0 mm 0.00 in0.0 mm 0.00 in0.0 mm
12:48 PM 52.0°F11.1°C 38.5°F3.6°C 60% 2.0 mph SW3.2 kmh SW 5.0 mph8.0 kmh 30.27 in1025.1 mb 0.00 in0.0 mm 0.00 in0.0 mm 0.00 in0.0 mm
12:53 PM 52.1°F11.2°C 38.3°F3.5°C 59% 2.6 mph SW4.2 kmh SW 7.0 mph11.3 kmh 30.27 in1025.1 mb 0.00 in0.0 mm 0.00 in0.0 mm 0.00 in0.0 mm
12:58 PM 52.4°F11.3°C 39.0°F3.9°C 60% 3.4 mph SSW5.5 kmh SSW 7.0 mph11.3 kmh 30.27 in1025.1 mb 0.00 in0.0 mm 0.00 in0.0 mm 0.00 in0.0 mm
01:03 PM 53.1°F11.7°C 39.2°F4.0°C 59% 2.7 mph WSW4.3 kmh WSW 7.0 mph11.3 kmh 30.26 in1024.7 mb 0.00 in0.0 mm 0.00 in0.0 mm 0.00 in0.0 mm
01:08 PM 53.1°F11.7°C 38.7°F3.7°C 58% 4.2 mph SW6.8 kmh SW 7.0 mph11.3 kmh 30.25 in1024.4 mb 0.00 in0.0 mm 0.00 in0.0 mm 0.00 in0.0 mm
01:13 PM 53.2°F11.8°C 38.9°F3.8°C 58% 4.3 mph SSW6.9 kmh SSW 9.0 mph14.5 kmh 30.24 in1024.0 mb 0.00 in0.0 mm 0.00 in0.0 mm 0.00 in0.0 mm
01:18 PM 53.7°F12.1°C 38.8°F3.8°C 57% 1.9 mph SW3.1 kmh SW 9.0 mph14.5 kmh 30.24 in1024.0 mb 0.00 in0.0 mm 0.00 in0.0 mm 0.00 in0.0 mm
01:23 PM 54.4°F12.4°C 39.6°F4.2°C 57% 2.0 mph SW3.2 kmh SW 9.0 mph14.5 kmh 30.24 in1024.0 mb 0.00 in0.0 mm 0.00 in0.0 mm 0.00 in0.0 mm
01:28 PM 54.5°F12.5°C 39.6°F4.2°C 57% 1.6 mph WSW2.6 kmh WSW 9.0 mph14.5 kmh 30.24 in1024.0 mb 0.00 in0.0 mm 0.00 in0.0 mm 0.00 in0.0 mm
01:33 PM 54.9°F12.7°C 39.5°F4.2°C 56% 1.3 mph SW2.1 kmh SW 8.0 mph12.9 kmh 30.24 in1024.0 mb 0.00 in0.0 mm 0.00 in0.0 mm 0.00 in0.0 mm
01:38 PM 55.1°F12.8°C 38.3°F3.5°C 53% 3.7 mph SW6.0 kmh SW 7.0 mph11.3 kmh 30.24 in1024.0 mb 0.00 in0.0 mm 0.00 in0.0 mm 0.00 in0.0 mm
01:43 PM 55.1°F12.8°C 38.8°F3.8°C 54% 3.3 mph SW5.3 kmh SW 7.0 mph11.3 kmh 30.23 in1023.7 mb 0.00 in0.0 mm 0.00 in0.0 mm 0.00 in0.0 mm
01:48 PM 55.8°F13.2°C 39.0°F3.9°C 53% 4.5 mph SW7.2 kmh SW 7.0 mph11.3 kmh 30.23 in1023.7 mb 0.00 in0.0 mm 0.00 in0.0 mm 0.00 in0.0 mm
01:53 PM 56.2°F13.4°C 39.3°F4.1°C 53% 2.6 mph S4.2 kmh S 8.0 mph12.9 kmh 30.23 in1023.7 mb 0.00 in0.0 mm 0.00 in0.0 mm 0.00 in0.0 mm
01:58 PM 56.5°F13.6°C 37.5°F3.1°C 49% 6.0 mph SW9.7 kmh SW 11.0 mph17.7 kmh 30.22 in1023.4 mb 0.00 in0.0 mm 0.00 in0.0 mm 0.00 in0.0 mm
02:03 PM 56.5°F13.6°C 37.6°F3.1°C 49% 6.8 mph WSW10.9 kmh WSW 13.0 mph20.9 kmh 30.21 in1023.0 mb 0.00 in0.0 mm 0.00 in0.0 mm 0.00 in0.0 mm
02:08 PM 56.4°F13.6°C 37.5°F3.1°C 49% 2.4 mph SW3.9 kmh SW 13.0 mph20.9 kmh 30.21 in1023.0 mb 0.00 in0.0 mm 0.00 in0.0 mm 0.00 in0.0 mm
02:13 PM 57.0°F13.9°C 38.5°F3.6°C 50% 2.8 mph WSW4.5 kmh WSW 13.0 mph20.9 kmh 30.21 in1023.0 mb 0.00 in0.0 mm 0.00 in0.0 mm 0.00 in0.0 mm
02:18 PM 56.8°F13.8°C 37.8°F3.2°C 49% 4.5 mph SW7.2 kmh SW 12.0 mph19.3 kmh 30.20 in1022.7 mb 0.00 in0.0 mm 0.00 in0.0 mm 0.00 in0.0 mm
02:23 PM 56.6°F13.7°C 38.2°F3.4°C 50% 2.8 mph SW4.5 kmh SW 11.0 mph17.7 kmh 30.21 in1023.0 mb 0.00 in0.0 mm 0.00 in0.0 mm 0.00 in0.0 mm
02:28 PM 57.1°F13.9°C 36.4°F2.4°C 46% 2.2 mph SW3.5 kmh SW 11.0 mph17.7 kmh 30.20 in1022.7 mb 0.00 in0.0 mm 0.00 in0.0 mm 0.00 in0.0 mm
02:33 PM 57.2°F14.0°C 36.0°F2.2°C 45% 4.6 mph SW7.4 kmh SW 10.0 mph16.1 kmh 30.20 in1022.7 mb 0.00 in0.0 mm 0.00 in0.0 mm 0.00 in0.0 mm
02:38 PM 56.9°F13.8°C 36.3°F2.4°C 46% 5.0 mph SW8.0 kmh SW 10.0 mph16.1 kmh 30.20 in1022.7 mb 0.00 in0.0 mm 0.00 in0.0 mm 0.00 in0.0 mm
02:43 PM 57.1°F13.9°C 35.9°F2.2°C 45% 3.6 mph WSW5.8 kmh WSW 10.0 mph16.1 kmh 30.19 in1022.4 mb 0.00 in0.0 mm 0.00 in0.0 mm 0.00 in0.0 mm
02:48 PM 57.1°F13.9°C 36.4°F2.4°C 46% 1.5 mph SW2.4 kmh SW 10.0 mph16.1 kmh 30.19 in1022.4 mb 0.00 in0.0 mm 0.00 in0.0 mm 0.00 in0.0 mm
02:53 PM 57.3°F14.1°C 36.6°F2.6°C 46% 3.3 mph W5.3 kmh W 10.0 mph16.1 kmh 30.19 in1022.4 mb 0.00 in0.0 mm 0.00 in0.0 mm 0.00 in0.0 mm
02:58 PM 57.5°F14.2°C 37.4°F3.0°C 47% 1.8 mph W2.9 kmh W 7.0 mph11.3 kmh 30.20 in1022.7 mb 0.00 in0.0 mm 0.00 in0.0 mm 0.00 in0.0 mm
03:03 PM 57.1°F13.9°C 36.5°F2.5°C 46% 3.7 mph W6.0 kmh W 8.0 mph12.9 kmh 30.20 in1022.7 mb 0.00 in0.0 mm 0.00 in0.0 mm 0.00 in0.0 mm
03:08 PM 57.1°F13.9°C 37.0°F2.8°C 47% 1.7 mph WSW2.7 kmh WSW 9.0 mph14.5 kmh 30.19 in1022.4 mb 0.00 in0.0 mm 0.00 in0.0 mm 0.00 in0.0 mm
03:13 PM 57.1°F13.9°C 36.4°F2.4°C 46% 2.6 mph WSW4.2 kmh WSW 9.0 mph14.5 kmh 30.19 in1022.4 mb 0.00 in0.0 mm 0.00 in0.0 mm 0.00 in0.0 mm
03:18 PM 56.8°F13.8°C 36.2°F2.3°C 46% 4.9 mph W7.9 kmh W 10.0 mph16.1 kmh 30.18 in1022.0 mb 0.00 in0.0 mm 0.00 in0.0 mm 0.00 in0.0 mm
03:23 PM 57.0°F13.9°C 36.9°F2.7°C 47% 2.3 mph SW3.7 kmh SW 10.0 mph16.1 kmh 30.18 in1022.0 mb 0.00 in0.0 mm 0.00 in0.0 mm 0.00 in0.0 mm
03:28 PM 57.0°F13.9°C 37.5°F3.1°C 48% 1.9 mph W3.1 kmh W 10.0 mph16.1 kmh 30.18 in1022.0 mb 0.00 in0.0 mm 0.00 in0.0 mm 0.00 in0.0 mm
03:32 PM 56.8°F13.8°C 36.7°F2.6°C 47% 3.0 mph W4.8 kmh W 10.0 mph16.1 kmh 30.18 in1022.0 mb 0.00 in0.0 mm 0.00 in0.0 mm 0.00 in0.0 mm
03:37 PM 56.3°F13.5°C 38.9°F3.8°C 52% 2.3 mph WSW3.7 kmh WSW 8.0 mph12.9 kmh 30.18 in1022.0 mb 0.00 in0.0 mm 0.00 in0.0 mm 0.00 in0.0 mm
03:42 PM 55.9°F13.3°C 38.0°F3.3°C 51% 3.0 mph W4.8 kmh W 8.0 mph12.9 kmh 30.18 in1022.0 mb 0.00 in0.0 mm 0.00 in0.0 mm 0.00 in0.0 mm
03:47 PM 55.6°F13.1°C 39.3°F4.1°C 54% 1.2 mph W1.9 kmh W 8.0 mph12.9 kmh 30.18 in1022.0 mb 0.00 in0.0 mm 0.00 in0.0 mm 0.00 in0.0 mm
03:52 PM 55.5°F13.1°C 38.7°F3.7°C 53% 2.0 mph WNW3.2 kmh WNW 8.0 mph12.9 kmh 30.18 in1022.0 mb 0.00 in0.0 mm 0.00 in0.0 mm 0.00 in0.0 mm
03:57 PM 55.3°F12.9°C 38.5°F3.6°C 53% 3.8 mph WNW6.1 kmh WNW 7.0 mph11.3 kmh 30.18 in1022.0 mb 0.00 in0.0 mm 0.00 in0.0 mm 0.00 in0.0 mm
04:02 PM 55.2°F12.9°C 39.3°F4.1°C 55% 1.0 mph WNW1.6 kmh WNW 7.0 mph11.3 kmh 30.18 in1022.0 mb 0.00 in0.0 mm 0.00 in0.0 mm 0.00 in0.0 mm
04:07 PM 55.1°F12.8°C 39.2°F4.0°C 55% 1.3 mph WNW2.1 kmh WNW 7.0 mph11.3 kmh 30.18 in1022.0 mb 0.00 in0.0 mm 0.00 in0.0 mm 0.00 in0.0 mm
04:12 PM 54.9°F12.7°C 39.5°F4.2°C 56% 1.3 mph WNW2.1 kmh WNW 6.0 mph9.7 kmh 30.18 in1022.0 mb 0.00 in0.0 mm 0.00 in0.0 mm 0.00 in0.0 mm
04:17 PM 54.7°F12.6°C 41.6°F5.3°C 61% 1.0 mph WNW1.6 kmh WNW 4.0 mph6.4 kmh 30.18 in1022.0 mb 0.00 in0.0 mm 0.00 in0.0 mm 0.00 in0.0 mm
04:22 PM 54.3°F12.4°C 41.2°F5.1°C 61% 1.7 mph NW2.7 kmh NW 4.0 mph6.4 kmh 30.17 in1021.7 mb 0.00 in0.0 mm 0.00 in0.0 mm 0.00 in0.0 mm
04:27 PM 54.2°F12.3°C 41.2°F5.1°C 61% 1.2 mph NNW1.9 kmh NNW 4.0 mph6.4 kmh 30.17 in1021.7 mb 0.00 in0.0 mm 0.00 in0.0 mm 0.00 in0.0 mm
04:32 PM 54.3°F12.4°C 41.2°F5.1°C 61% Calm Calm 3.0 mph4.8 kmh 30.17 in1021.7 mb 0.00 in0.0 mm 0.00 in0.0 mm 0.00 in0.0 mm
04:37 PM 54.4°F12.4°C 41.3°F5.2°C 61% 1.0 mph WNW1.6 kmh WNW 3.0 mph4.8 kmh 30.17 in1021.7 mb 0.00 in0.0 mm 0.00 in0.0 mm 0.00 in0.0 mm
04:42 PM 54.5°F12.5°C 41.4°F5.2°C 61% 2.4 mph NW3.9 kmh NW 3.0 mph4.8 kmh 30.17 in1021.7 mb 0.00 in0.0 mm 0.00 in0.0 mm 0.00 in0.0 mm
04:47 PM 54.6°F12.6°C 41.5°F5.3°C 61% 1.2 mph W1.9 kmh W 3.0 mph4.8 kmh 30.18 in1022.0 mb 0.00 in0.0 mm 0.00 in0.0 mm 0.00 in0.0 mm
04:52 PM 54.6°F12.6°C 41.1°F5.1°C 60% 2.0 mph WNW3.2 kmh WNW 5.0 mph8.0 kmh 30.18 in1022.0 mb 0.00 in0.0 mm 0.00 in0.0 mm 0.00 in0.0 mm
04:57 PM 54.5°F12.5°C 41.4°F5.2°C 61% 2.3 mph WNW3.7 kmh WNW 5.0 mph8.0 kmh 30.18 in1022.0 mb 0.00 in0.0 mm 0.00 in0.0 mm 0.00 in0.0 mm
05:02 PM 54.2°F12.3°C 42.7°F5.9°C 65% 1.8 mph NW2.9 kmh NW 5.0 mph8.0 kmh 30.18 in1022.0 mb 0.00 in0.0 mm 0.00 in0.0 mm 0.00 in0.0 mm
05:07 PM 53.7°F12.1°C 43.5°F6.4°C 68% 1.1 mph NNW1.8 kmh NNW 5.0 mph8.0 kmh 30.18 in1022.0 mb 0.00 in0.0 mm 0.00 in0.0 mm 0.00 in0.0 mm
05:12 PM 53.3°F11.8°C 43.5°F6.4°C 69% 1.0 mph N1.6 kmh N 5.0 mph8.0 kmh 30.18 in1022.0 mb 0.00 in0.0 mm 0.00 in0.0 mm 0.00 in0.0 mm
05:17 PM 52.9°F11.6°C 43.1°F6.2°C 69% 1.8 mph N2.9 kmh N 5.0 mph8.0 kmh 30.18 in1022.0 mb 0.00 in0.0 mm 0.00 in0.0 mm 0.00 in0.0 mm
05:22 PM 52.6°F11.4°C 42.8°F6.0°C 69% 1.6 mph NE2.6 kmh NE 3.0 mph4.8 kmh 30.18 in1022.0 mb 0.00 in0.0 mm 0.00 in0.0 mm 0.00 in0.0 mm
05:27 PM 52.3°F11.3°C 42.8°F6.0°C 70% 3.4 mph NW5.5 kmh NW 4.0 mph6.4 kmh 30.18 in1022.0 mb 0.00 in0.0 mm 0.00 in0.0 mm 0.00 in0.0 mm
05:32 PM 52.0°F11.1°C 42.6°F5.9°C 70% 2.0 mph NW3.2 kmh NW 4.0 mph6.4 kmh 30.18 in1022.0 mb 0.00 in0.0 mm 0.00 in0.0 mm 0.00 in0.0 mm
05:37 PM 51.9°F11.1°C 42.9°F6.1°C 71% 1.1 mph NNE1.8 kmh NNE 4.0 mph6.4 kmh 30.18 in1022.0 mb 0.00 in0.0 mm 0.00 in0.0 mm 0.00 in0.0 mm
05:42 PM 51.7°F10.9°C 43.1°F6.2°C 72% Calm Calm 4.0 mph6.4 kmh 30.19 in1022.4 mb 0.00 in0.0 mm 0.00 in0.0 mm 0.00 in0.0 mm
05:47 PM 51.6°F10.9°C 43.3°F6.3°C 73% 1.2 mph WNW1.9 kmh WNW 4.0 mph6.4 kmh 30.19 in1022.4 mb 0.00 in0.0 mm 0.00 in0.0 mm 0.00 in0.0 mm
05:52 PM 51.5°F10.8°C 43.9°F6.6°C 75% 1.2 mph WNW1.9 kmh WNW 2.0 mph3.2 kmh 30.19 in1022.4 mb 0.00 in0.0 mm 0.00 in0.0 mm 0.00 in0.0 mm
05:57 PM 51.3°F10.7°C 44.1°F6.7°C 76% Calm Calm 2.0 mph3.2 kmh 30.19 in1022.4 mb 0.00 in0.0 mm 0.00 in0.0 mm 0.00 in0.0 mm
06:02 PM 51.0°F10.6°C 44.4°F6.9°C 78% Calm Calm 2.0 mph3.2 kmh 30.19 in1022.4 mb 0.00 in0.0 mm 0.00 in0.0 mm 0.00 in0.0 mm
06:07 PM 50.7°F10.4°C 44.8°F7.1°C 80% 1.0 mph W1.6 kmh W 2.0 mph3.2 kmh 30.19 in1022.4 mb 0.00 in0.0 mm 0.00 in0.0 mm 0.00 in0.0 mm
06:12 PM 50.4°F10.2°C 45.1°F7.3°C 82% 1.0 mph WSW1.6 kmh WSW 1.0 mph1.6 kmh 30.19 in1022.4 mb 0.00 in0.0 mm 0.00 in0.0 mm 0.00 in0.0 mm
06:17 PM 50.0°F10.0°C 44.7°F7.1°C 82% 1.7 mph WSW2.7 kmh WSW 4.0 mph6.4 kmh 30.19 in1022.4 mb 0.00 in0.0 mm 0.00 in0.0 mm 0.00 in0.0 mm
06:22 PM 49.8°F9.9°C 44.9°F7.2°C 83% 1.4 mph WSW2.3 kmh WSW 5.0 mph8.0 kmh 30.20 in1022.7 mb 0.01 in0.3 mm 0.12 in3.0 mm 0.01 in0.3 mm
06:27 PM 49.5°F9.7°C 44.6°F7.0°C 83% 3.1 mph WSW5.0 kmh WSW 7.0 mph11.3 kmh 30.20 in1022.7 mb 0.01 in0.3 mm 0.00 in0.0 mm 0.01 in0.3 mm
06:32 PM 49.1°F9.5°C 44.2°F6.8°C 83% 3.9 mph SW6.3 kmh SW 10.0 mph16.1 kmh 30.20 in1022.7 mb 0.01 in0.3 mm 0.00 in0.0 mm 0.01 in0.3 mm
06:37 PM 48.6°F9.2°C 44.3°F6.8°C 85% 2.5 mph SW4.0 kmh SW 10.0 mph16.1 kmh 30.19 in1022.4 mb 0.03 in0.8 mm 0.24 in6.1 mm 0.03 in0.8 mm
06:42 PM 48.1°F8.9°C 44.1°F6.7°C 86% 1.0 mph SW1.6 kmh SW 10.0 mph16.1 kmh 30.19 in1022.4 mb 0.04 in1.0 mm 0.12 in3.0 mm 0.04 in1.0 mm
06:47 PM 47.8°F8.8°C 44.4°F6.9°C 88% 1.6 mph WSW2.6 kmh WSW 10.0 mph16.1 kmh 30.20 in1022.7 mb 0.05 in1.3 mm 0.12 in3.0 mm 0.05 in1.3 mm
06:52 PM 47.6°F8.7°C 44.5°F6.9°C 89% 1.0 mph WSW1.6 kmh WSW 5.0 mph8.0 kmh 30.19 in1022.4 mb 0.05 in1.3 mm 0.00 in0.0 mm 0.05 in1.3 mm
06:57 PM 47.5°F8.6°C 44.4°F6.9°C 89% 1.0 mph WSW1.6 kmh WSW 3.0 mph4.8 kmh 30.20 in1022.7 mb 0.05 in1.3 mm 0.00 in0.0 mm 0.05 in1.3 mm
07:02 PM 47.4°F8.6°C 44.6°F7.0°C 90% 1.0 mph WSW1.6 kmh WSW 3.0 mph4.8 kmh 30.20 in1022.7 mb 0.05 in1.3 mm 0.00 in0.0 mm 0.05 in1.3 mm
07:08 PM 47.3°F8.5°C 44.8°F7.1°C 91% 1.0 mph NNE1.6 kmh NNE 1.0 mph1.6 kmh 30.20 in1022.7 mb 0.06 in1.5 mm 0.10 in2.5 mm 0.06 in1.5 mm
07:13 PM 47.3°F8.5°C 45.0°F7.2°C 92% Calm Calm 1.0 mph1.6 kmh 30.21 in1023.0 mb 0.06 in1.5 mm 0.00 in0.0 mm 0.06 in1.5 mm
07:18 PM 47.3°F8.5°C 45.0°F7.2°C 92% Calm Calm 1.0 mph1.6 kmh 30.21 in1023.0 mb 0.07 in1.8 mm 0.12 in3.0 mm 0.07 in1.8 mm
07:23 PM 47.1°F8.4°C 44.9°F7.2°C 92% 1.1 mph NW1.8 kmh NW 2.0 mph3.2 kmh 30.22 in1023.4 mb 0.06 in1.5 mm 0.00 in0.0 mm 0.07 in1.8 mm
07:28 PM 47.0°F8.3°C 45.0°F7.2°C 93% 1.1 mph NNW1.8 kmh NNW 3.0 mph4.8 kmh 30.22 in1023.4 mb 0.07 in1.8 mm 0.12 in3.0 mm 0.08 in2.0 mm
07:33 PM 46.9°F8.3°C 44.9°F7.2°C 93% 1.4 mph NNE2.3 kmh NNE 4.0 mph6.4 kmh 30.21 in1023.0 mb 0.07 in1.8 mm 0.00 in0.0 mm 0.08 in2.0 mm
07:38 PM 46.8°F8.2°C 45.1°F7.3°C 94% 1.0 mph NE1.6 kmh NE 4.0 mph6.4 kmh 30.21 in1023.0 mb 0.06 in1.5 mm 0.00 in0.0 mm 0.09 in2.3 mm
07:43 PM 46.8°F8.2°C 45.1°F7.3°C 94% Calm Calm 4.0 mph6.4 kmh 30.21 in1023.0 mb 0.05 in1.3 mm 0.00 in0.0 mm 0.09 in2.3 mm
07:48 PM 46.8°F8.2°C 45.1°F7.3°C 94% Calm Calm 4.0 mph6.4 kmh 30.21 in1023.0 mb 0.05 in1.3 mm 0.00 in0.0 mm 0.10 in2.5 mm
07:53 PM 46.7°F8.2°C 45.0°F7.2°C 94% Calm Calm 1.0 mph1.6 kmh 30.21 in1023.0 mb 0.05 in1.3 mm 0.00 in0.0 mm 0.10 in2.5 mm
07:58 PM 46.7°F8.2°C 45.0°F7.2°C 94% Calm Calm 1.0 mph1.6 kmh 30.21 in1023.0 mb 0.05 in1.3 mm 0.00 in0.0 mm 0.10 in2.5 mm
08:03 PM 46.7°F8.2°C 45.0°F7.2°C 94% Calm Calm 1.0 mph1.6 kmh 30.21 in1023.0 mb 0.05 in1.3 mm 0.00 in0.0 mm 0.10 in2.5 mm
08:08 PM 46.6°F8.1°C 44.9°F7.2°C 94% Calm Calm 1.0 mph1.6 kmh 30.21 in1023.0 mb 0.04 in1.0 mm 0.00 in0.0 mm 0.10 in2.5 mm
08:13 PM 46.7°F8.2°C 45.3°F7.4°C 95% Calm Calm -- 30.21 in1023.0 mb 0.04 in1.0 mm 0.00 in0.0 mm 0.10 in2.5 mm
08:18 PM 46.7°F8.2°C 45.3°F7.4°C 95% Calm Calm -- 30.21 in1023.0 mb 0.03 in0.8 mm 0.00 in0.0 mm 0.10 in2.5 mm
08:23 PM 46.6°F8.1°C 45.2°F7.3°C 95% 1.0 mph SE1.6 kmh SE 2.0 mph3.2 kmh 30.21 in1023.0 mb 0.03 in0.8 mm 0.00 in0.0 mm 0.10 in2.5 mm
08:28 PM 46.5°F8.1°C 45.1°F7.3°C 95% 1.3 mph SE2.1 kmh SE 2.0 mph3.2 kmh 30.20 in1022.7 mb 0.02 in0.5 mm 0.00 in0.0 mm 0.10 in2.5 mm
08:32 PM 46.6°F8.1°C 45.2°F7.3°C 95% 1.4 mph SE2.3 kmh SE 3.0 mph4.8 kmh 30.20 in1022.7 mb 0.02 in0.5 mm 0.00 in0.0 mm 0.10 in2.5 mm
08:37 PM 46.5°F8.1°C 45.1°F7.3°C 95% 1.0 mph S1.6 kmh S 3.0 mph4.8 kmh 30.20 in1022.7 mb 0.01 in0.3 mm 0.00 in0.0 mm 0.10 in2.5 mm
08:42 PM 46.5°F8.1°C 45.1°F7.3°C 95% 1.2 mph SSE1.9 kmh SSE 3.0 mph4.8 kmh 30.20 in1022.7 mb 0.01 in0.3 mm 0.00 in0.0 mm 0.10 in2.5 mm
08:47 PM 46.5°F8.1°C 45.1°F7.3°C 95% Calm Calm 3.0 mph4.8 kmh 30.20 in1022.7 mb 0.00 in0.0 mm 0.00 in0.0 mm 0.10 in2.5 mm
08:52 PM 46.5°F8.1°C 45.1°F7.3°C 95% Calm Calm 2.0 mph3.2 kmh 30.20 in1022.7 mb 0.00 in0.0 mm 0.00 in0.0 mm 0.10 in2.5 mm
08:57 PM 46.4°F8.0°C 45.0°F7.2°C 95% 1.0 mph S1.6 kmh S 2.0 mph3.2 kmh 30.20 in1022.7 mb 0.00 in0.0 mm 0.00 in0.0 mm 0.10 in2.5 mm
09:02 PM 46.5°F8.1°C 45.1°F7.3°C 95% 1.0 mph SSW1.6 kmh SSW 1.0 mph1.6 kmh 30.20 in1022.7 mb 0.00 in0.0 mm 0.00 in0.0 mm 0.10 in2.5 mm
09:07 PM 46.5°F8.1°C 45.1°F7.3°C 95% Calm Calm 1.0 mph1.6 kmh 30.20 in1022.7 mb 0.00 in0.0 mm 0.00 in0.0 mm 0.10 in2.5 mm
09:12 PM 46.5°F8.1°C 45.1°F7.3°C 95% 1.0 mph S1.6 kmh S 1.0 mph1.6 kmh 30.20 in1022.7 mb 0.00 in0.0 mm 0.00 in0.0 mm 0.10 in2.5 mm
09:17 PM 46.4°F8.0°C 45.0°F7.2°C 95% Calm Calm 1.0 mph1.6 kmh 30.20 in1022.7 mb 0.00 in0.0 mm 0.00 in0.0 mm 0.10 in2.5 mm
09:22 PM 46.4°F8.0°C 45.0°F7.2°C 95% Calm Calm 1.0 mph1.6 kmh 30.20 in1022.7 mb 0.00 in0.0 mm 0.00 in0.0 mm 0.10 in2.5 mm
09:27 PM 46.4°F8.0°C 45.0°F7.2°C 95% Calm Calm 1.0 mph1.6 kmh 30.21 in1023.0 mb 0.00 in0.0 mm 0.00 in0.0 mm 0.10 in2.5 mm
09:32 PM 46.4°F8.0°C 45.0°F7.2°C 95% Calm Calm -- 30.20 in1022.7 mb 0.00 in0.0 mm 0.00 in0.0 mm 0.10 in2.5 mm
09:37 PM 46.4°F8.0°C 45.0°F7.2°C 95% Calm Calm -- 30.20 in1022.7 mb 0.01 in0.3 mm 0.12 in3.0 mm 0.11 in2.8 mm
09:42 PM 46.4°F8.0°C 45.0°F7.2°C 95% Calm Calm -- 30.20 in1022.7 mb 0.02 in0.5 mm 0.12 in3.0 mm 0.12 in3.0 mm
09:47 PM 46.5°F8.1°C 45.1°F7.3°C 95% Calm Calm -- 30.20 in1022.7 mb 0.04 in1.0 mm 0.24 in6.1 mm 0.14 in3.6 mm
09:52 PM 46.5°F8.1°C 45.1°F7.3°C 95% Calm Calm -- 30.20 in1022.7 mb 0.04 in1.0 mm 0.00 in0.0 mm 0.14 in3.6 mm
09:57 PM 46.5°F8.1°C 45.1°F7.3°C 95% Calm Calm -- 30.20 in1022.7 mb 0.04 in1.0 mm 0.00 in0.0 mm 0.14 in3.6 mm
10:02 PM 46.4°F8.0°C 45.0°F7.2°C 95% Calm Calm -- 30.20 in1022.7 mb 0.05 in1.3 mm 0.01 in0.3 mm 0.15 in3.8 mm
10:07 PM 46.4°F8.0°C 45.0°F7.2°C 95% Calm Calm -- 30.20 in1022.7 mb 0.05 in1.3 mm 0.00 in0.0 mm 0.15 in3.8 mm
10:12 PM 46.3°F7.9°C 44.9°F7.2°C 95% 1.1 mph S1.8 kmh S 2.0 mph3.2 kmh 30.20 in1022.7 mb 0.05 in1.3 mm 0.00 in0.0 mm 0.15 in3.8 mm
10:17 PM 46.3°F7.9°C 44.9°F7.2°C 95% 1.0 mph SSE1.6 kmh SSE 2.0 mph3.2 kmh 30.19 in1022.4 mb 0.07 in1.8 mm 0.24 in6.1 mm 0.17 in4.3 mm
10:22 PM 46.3°F7.9°C 45.2°F7.3°C 96% 1.5 mph SSE2.4 kmh SSE 2.0 mph3.2 kmh 30.19 in1022.4 mb 0.07 in1.8 mm 0.00 in0.0 mm 0.17 in4.3 mm
10:27 PM 46.3°F7.9°C 45.2°F7.3°C 96% Calm Calm 2.0 mph3.2 kmh 30.19 in1022.4 mb 0.07 in1.8 mm 0.00 in0.0 mm 0.17 in4.3 mm
10:32 PM 46.3°F7.9°C 45.2°F7.3°C 96% 1.0 mph SSW1.6 kmh SSW 2.0 mph3.2 kmh 30.19 in1022.4 mb 0.07 in1.8 mm 0.00 in0.0 mm 0.17 in4.3 mm
10:37 PM 46.3°F7.9°C 45.2°F7.3°C 96% 1.3 mph S2.1 kmh S 2.0 mph3.2 kmh 30.19 in1022.4 mb 0.06 in1.5 mm 0.00 in0.0 mm 0.17 in4.3 mm
10:42 PM 46.2°F7.9°C 45.1°F7.3°C 96% 1.0 mph SSW1.6 kmh SSW 2.0 mph3.2 kmh 30.18 in1022.0 mb 0.06 in1.5 mm 0.00 in0.0 mm 0.18 in4.6 mm
10:47 PM 46.2°F7.9°C 45.1°F7.3°C 96% 1.0 mph SE1.6 kmh SE 2.0 mph3.2 kmh 30.18 in1022.0 mb 0.04 in1.0 mm 0.00 in0.0 mm 0.18 in4.6 mm
10:52 PM 46.3°F7.9°C 45.2°F7.3°C 96% Calm Calm 2.0 mph3.2 kmh 30.18 in1022.0 mb 0.04 in1.0 mm 0.00 in0.0 mm 0.18 in4.6 mm
10:57 PM 46.3°F7.9°C 45.2°F7.3°C 96% Calm Calm 2.0 mph3.2 kmh 30.18 in1022.0 mb 0.04 in1.0 mm 0.00 in0.0 mm 0.18 in4.6 mm
11:02 PM 46.3°F7.9°C 45.2°F7.3°C 96% Calm Calm 2.0 mph3.2 kmh 30.18 in1022.0 mb 0.03 in0.8 mm 0.00 in0.0 mm 0.18 in4.6 mm
11:07 PM 46.2°F7.9°C 45.1°F7.3°C 96% 1.0 mph S1.6 kmh S 1.0 mph1.6 kmh 30.17 in1021.7 mb 0.03 in0.8 mm 0.00 in0.0 mm 0.18 in4.6 mm
11:12 PM 46.3°F7.9°C 45.2°F7.3°C 96% 1.2 mph SSE1.9 kmh SSE 2.0 mph3.2 kmh 30.17 in1021.7 mb 0.03 in0.8 mm 0.00 in0.0 mm 0.18 in4.6 mm
11:17 PM 46.3°F7.9°C 45.2°F7.3°C 96% 1.4 mph SSE2.3 kmh SSE 3.0 mph4.8 kmh 30.17 in1021.7 mb 0.01 in0.3 mm 0.00 in0.0 mm 0.18 in4.6 mm
11:22 PM 46.3°F7.9°C 45.2°F7.3°C 96% 1.7 mph S2.7 kmh S 3.0 mph4.8 kmh 30.17 in1021.7 mb 0.01 in0.3 mm 0.00 in0.0 mm 0.18 in4.6 mm
11:27 PM 46.2°F7.9°C 45.1°F7.3°C 96% 1.0 mph SW1.6 kmh SW 3.0 mph4.8 kmh 30.18 in1022.0 mb 0.01 in0.3 mm 0.00 in0.0 mm 0.18 in4.6 mm
11:32 PM 46.3°F7.9°C 45.2°F7.3°C 96% 1.7 mph SSW2.7 kmh SSW 3.0 mph4.8 kmh 30.18 in1022.0 mb 0.01 in0.3 mm 0.00 in0.0 mm 0.18 in4.6 mm
11:37 PM 46.3°F7.9°C 45.2°F7.3°C 96% 1.1 mph SW1.8 kmh SW 3.0 mph4.8 kmh 30.18 in1022.0 mb 0.01 in0.3 mm 0.00 in0.0 mm 0.18 in4.6 mm
11:42 PM 46.3°F7.9°C 45.2°F7.3°C 96% 1.2 mph SSW1.9 kmh SSW 4.0 mph6.4 kmh 30.18 in1022.0 mb 0.00 in0.0 mm 0.00 in0.0 mm 0.18 in4.6 mm
11:47 PM 46.3°F7.9°C 45.2°F7.3°C 96% 1.9 mph S3.1 kmh S 4.0 mph6.4 kmh 30.18 in1022.0 mb 0.00 in0.0 mm 0.00 in0.0 mm 0.18 in4.6 mm
11:52 PM 46.3°F7.9°C 45.2°F7.3°C 96% Calm Calm 4.0 mph6.4 kmh 30.19 in1022.4 mb 0.00 in0.0 mm 0.00 in0.0 mm 0.18 in4.6 mm
11:57 PM 46.3°F7.9°C 45.2°F7.3°C 96% 1.3 mph SSW2.1 kmh SSW 4.0 mph6.4 kmh 30.19 in1022.4 mb 0.00 in0.0 mm 0.00 in0.0 mm 0.18 in4.6 mm